createdAt,value
2023-02-05T00:00:44.436Z,103836.00
2023-02-05T00:03:11.352Z,103833.00
2023-02-05T00:05:38.008Z,103840.00
2023-02-05T00:08:04.791Z,103837.00
2023-02-05T00:10:31.413Z,103832.00
2023-02-05T00:12:58.094Z,103833.00
2023-02-05T00:15:24.754Z,103820.00
2023-02-05T00:17:51.383Z,103822.00
2023-02-05T00:20:18.221Z,103819.00
2023-02-05T00:22:44.858Z,103814.00
2023-02-05T00:25:11.521Z,103829.00
2023-02-05T00:27:38.135Z,103834.00
2023-02-05T00:30:05.250Z,103830.00
2023-02-05T00:32:31.851Z,103829.00
2023-02-05T00:34:58.459Z,103834.00
2023-02-05T00:37:25.183Z,103832.00
2023-02-05T00:39:51.779Z,103820.00
2023-02-05T00:42:18.364Z,103812.00
2023-02-05T00:44:45.052Z,103809.00
2023-02-05T00:47:11.618Z,103794.00
2023-02-05T00:49:38.270Z,103804.00
2023-02-05T00:52:05.187Z,103807.00
2023-02-05T00:54:31.985Z,103809.00
2023-02-05T00:56:58.645Z,103807.00
2023-02-05T00:59:25.343Z,103803.00
2023-02-05T01:01:52.098Z,103824.00
2023-02-05T01:04:18.772Z,103833.00
2023-02-05T01:06:45.421Z,103831.00
2023-02-05T01:09:12.134Z,103819.00
2023-02-05T01:11:38.852Z,103820.00
2023-02-05T01:14:05.485Z,103830.00
2023-02-05T01:16:32.111Z,103833.00
2023-02-05T01:18:59.047Z,103828.00
2023-02-05T01:21:25.697Z,103843.00
2023-02-05T01:23:52.736Z,103828.00
2023-02-05T01:26:19.435Z,103830.00
2023-02-05T01:28:46.170Z,103842.00
2023-02-05T01:31:12.980Z,103837.00
2023-02-05T01:33:39.684Z,103838.00
2023-02-05T01:36:06.529Z,103829.00
2023-02-05T01:38:33.167Z,103826.00
2023-02-05T01:41:00.095Z,103827.00
2023-02-05T01:43:26.862Z,103829.00
2023-02-05T01:46:08.132Z,103835.00
2023-02-05T01:48:42.704Z,103835.00
2023-02-05T01:51:13.042Z,103833.00
2023-02-05T01:53:40.382Z,103818.00
2023-02-05T01:56:12.768Z,103828.00
2023-02-05T01:58:48.136Z,103830.00
2023-02-05T02:01:15.029Z,103828.00
2023-02-05T02:03:41.853Z,103835.00
2023-02-05T02:06:08.558Z,103840.00
2023-02-05T02:08:35.228Z,103838.00
2023-02-05T02:11:04.717Z,103844.00
2023-02-05T02:13:34.367Z,103832.00
2023-02-05T02:16:03.165Z,103823.00
2023-02-05T02:18:30.887Z,103826.00
2023-02-05T02:21:15.958Z,103820.00
2023-02-05T02:23:45.509Z,103812.00
2023-02-05T02:26:42.640Z,103809.00
2023-02-05T02:29:18.481Z,103806.00
2023-02-05T02:31:57.316Z,103810.00
2023-02-05T02:34:36.938Z,103801.00
2023-02-05T02:37:15.094Z,103806.00
2023-02-05T02:39:49.233Z,103807.00
2023-02-05T02:42:23.390Z,103801.00
2023-02-05T02:45:04.590Z,103798.00
2023-02-05T02:47:58.821Z,103799.00
2023-02-05T02:50:34.741Z,103806.00
2023-02-05T02:53:10.386Z,103801.00
2023-02-05T02:55:43.722Z,103785.00
2023-02-05T02:58:17.824Z,103783.00
2023-02-05T03:00:45.922Z,103781.00
2023-02-05T03:03:15.651Z,103785.00
2023-02-05T03:05:43.948Z,103777.00
2023-02-05T03:08:21.362Z,103781.00
2023-02-05T03:11:02.374Z,103786.00
2023-02-05T03:13:29.793Z,103780.00
2023-02-05T03:15:56.661Z,103790.00
2023-02-05T03:18:24.040Z,103786.00
2023-02-05T03:20:57.128Z,103779.00
2023-02-05T03:23:26.184Z,103775.00
2023-02-05T03:25:53.179Z,103779.00
2023-02-05T03:28:19.984Z,103782.00
2023-02-05T03:31:15.497Z,103780.00
2023-02-05T03:33:44.844Z,103779.00
2023-02-05T03:36:23.356Z,103784.00
2023-02-05T03:38:59.911Z,103781.00
2023-02-05T03:41:46.545Z,103778.00
2023-02-05T03:44:25.371Z,103777.00
2023-02-05T03:47:22.320Z,103775.00
2023-02-05T03:50:12.698Z,103789.00
2023-02-05T03:52:45.406Z,103784.00
2023-02-05T03:55:19.358Z,103790.00
2023-02-05T03:58:03.903Z,103800.00
2023-02-05T04:00:32.306Z,103799.00
2023-02-05T04:02:58.961Z,103800.00
2023-02-05T04:05:25.720Z,103799.00
2023-02-05T04:07:53.023Z,103809.00
2023-02-05T04:10:19.882Z,103816.00
2023-02-05T04:12:46.473Z,103815.00
2023-02-05T04:15:13.222Z,103836.00
2023-02-05T04:17:40.389Z,103827.00
2023-02-05T04:20:08.193Z,103835.00
2023-02-05T04:22:34.904Z,103843.00
2023-02-05T04:25:01.534Z,103843.00
2023-02-05T04:27:28.193Z,103855.00
2023-02-05T04:29:55.101Z,103856.00
2023-02-05T04:32:21.750Z,103843.00
2023-02-05T04:34:48.311Z,103867.00
2023-02-05T04:37:14.905Z,103879.00
2023-02-05T04:39:41.479Z,103887.00
2023-02-05T04:42:08.132Z,103886.00
2023-02-05T04:44:34.740Z,103891.00
2023-02-05T04:47:01.386Z,103895.00
2023-02-05T04:49:28.305Z,103905.00
2023-02-05T04:51:54.897Z,103897.00
2023-02-05T04:54:21.496Z,103913.00
2023-02-05T04:56:48.139Z,103912.00
2023-02-05T04:59:14.783Z,103911.00
2023-02-05T05:01:41.534Z,103911.00
2023-02-05T05:04:09.040Z,103908.00
2023-02-05T05:06:35.666Z,103923.00
2023-02-05T05:09:02.272Z,103925.00
2023-02-05T05:11:28.921Z,103936.00
2023-02-05T05:13:55.628Z,103915.00
2023-02-05T05:16:22.297Z,103913.00
2023-02-05T05:18:51.584Z,103936.00
2023-02-05T05:21:18.177Z,103936.00
2023-02-05T05:23:44.800Z,103931.00
2023-02-05T05:26:12.410Z,103944.00
2023-02-05T05:28:39.509Z,103943.00
2023-02-05T05:31:11.379Z,103947.00
2023-02-05T05:33:38.321Z,103947.00
2023-02-05T05:36:06.594Z,103945.00
2023-02-05T05:38:33.220Z,103955.00
2023-02-05T05:41:18.800Z,103957.00
2023-02-05T05:43:48.181Z,103957.00
2023-02-05T05:46:22.625Z,103956.00
2023-02-05T05:48:54.279Z,103964.00
2023-02-05T05:51:22.043Z,103972.00
2023-02-05T05:53:49.014Z,103969.00
2023-02-05T05:56:17.392Z,103974.00
2023-02-05T05:58:44.354Z,103985.00
2023-02-05T06:01:12.704Z,103977.00
2023-02-05T06:03:39.311Z,103991.00
2023-02-05T06:06:12.121Z,103998.00
2023-02-05T06:08:38.910Z,103991.00
2023-02-05T06:11:05.513Z,103989.00
2023-02-05T06:13:32.425Z,103997.00
2023-02-05T06:15:59.072Z,103996.00
2023-02-05T06:18:25.834Z,104003.00
2023-02-05T06:20:52.503Z,104007.00
2023-02-05T06:23:19.098Z,104011.00
2023-02-05T06:25:45.793Z,104024.00
2023-02-05T06:28:12.583Z,104030.00
2023-02-05T06:30:39.530Z,104031.00
2023-02-05T06:33:06.168Z,104033.00
2023-02-05T06:35:33.263Z,104043.00
2023-02-05T06:38:00.124Z,104049.00
2023-02-05T06:40:28.175Z,104046.00
2023-02-05T06:42:55.311Z,104063.00
2023-02-05T06:45:22.700Z,104057.00
2023-02-05T06:47:50.152Z,104066.00
2023-02-05T06:50:16.851Z,104069.00
2023-02-05T06:52:43.479Z,104067.00
2023-02-05T06:55:10.101Z,104073.00
2023-02-05T06:57:36.994Z,104074.00
2023-02-05T07:00:07.554Z,104084.00
2023-02-05T07:02:34.280Z,104087.00
2023-02-05T07:05:01.056Z,104095.00
2023-02-05T07:07:28.333Z,104095.00
2023-02-05T07:09:55.115Z,104104.00
2023-02-05T07:12:21.770Z,104115.00
2023-02-05T07:14:48.418Z,104115.00
2023-02-05T07:17:15.151Z,104122.00
2023-02-05T07:19:41.840Z,104130.00
2023-02-05T07:22:08.592Z,104131.00
2023-02-05T07:24:35.414Z,104140.00
2023-02-05T07:27:02.087Z,104138.00
2023-02-05T07:29:28.700Z,104150.00
2023-02-05T07:31:55.409Z,104173.00
2023-02-05T07:34:22.365Z,104172.00
2023-02-05T07:36:52.811Z,104170.00
2023-02-05T07:39:19.609Z,104180.00
2023-02-05T07:41:46.385Z,104177.00
2023-02-05T07:44:13.078Z,104183.00
2023-02-05T07:46:39.823Z,104182.00
2023-02-05T07:49:06.439Z,104194.00
2023-02-05T07:51:33.148Z,104186.00
2023-02-05T07:53:59.870Z,104196.00
2023-02-05T07:56:26.489Z,104184.00
2023-02-05T07:58:53.067Z,104191.00
2023-02-05T08:01:19.804Z,104190.00
2023-02-05T08:03:46.537Z,104183.00
2023-02-05T08:06:15.539Z,104183.00
2023-02-05T08:08:42.510Z,104183.00
2023-02-05T08:11:14.182Z,104186.00
2023-02-05T08:13:41.035Z,104196.00
2023-02-05T08:16:08.154Z,104198.00
2023-02-05T08:18:35.253Z,104190.00
2023-02-05T08:21:01.871Z,104206.00
2023-02-05T08:23:28.502Z,104207.00
2023-02-05T08:25:59.092Z,104202.00
2023-02-05T08:28:27.343Z,104210.00
2023-02-05T08:30:54.205Z,104224.00
2023-02-05T08:33:20.988Z,104229.00
2023-02-05T08:35:47.570Z,104226.00
2023-02-05T08:38:14.145Z,104221.00
2023-02-05T08:40:40.818Z,104217.00
2023-02-05T08:43:08.535Z,104220.00
2023-02-05T08:45:35.652Z,104224.00
2023-02-05T08:48:02.728Z,104221.00
2023-02-05T08:50:29.515Z,104218.00
2023-02-05T08:52:56.217Z,104223.00
2023-02-05T08:55:22.809Z,104233.00
2023-02-05T08:57:49.417Z,104249.00
2023-02-05T09:00:16.346Z,104240.00
2023-02-05T09:02:43.619Z,104233.00
2023-02-05T09:05:10.524Z,104231.00
2023-02-05T09:07:42.010Z,104238.00
2023-02-05T09:10:10.865Z,104250.00
2023-02-05T09:12:37.945Z,104271.00
2023-02-05T09:15:05.726Z,104278.00
2023-02-05T09:17:32.398Z,104286.00
2023-02-05T09:19:59.109Z,104293.00
2023-02-05T09:22:25.750Z,104293.00
2023-02-05T09:24:52.414Z,104306.00
2023-02-05T09:27:19.063Z,104313.00
2023-02-05T09:29:45.693Z,104288.00
2023-02-05T09:32:12.354Z,104284.00
2023-02-05T09:34:38.993Z,104269.00
2023-02-05T09:37:05.581Z,104251.00
2023-02-05T09:40:17.172Z,104258.00
2023-02-05T09:42:40.634Z,104255.00
2023-02-05T09:45:07.291Z,104236.00
2023-02-05T09:47:56.413Z,104244.00
2023-02-05T09:50:29.652Z,104264.00
2023-02-05T09:53:09.746Z,104263.00
2023-02-05T09:55:40.944Z,104249.00
2023-02-05T09:58:16.461Z,104255.00
2023-02-05T10:00:47.532Z,104247.00
2023-02-05T10:03:32.861Z,104236.00
2023-02-05T10:06:16.414Z,104248.00
2023-02-05T10:09:04.044Z,104253.00
2023-02-05T10:11:50.895Z,104272.00
2023-02-05T10:14:40.614Z,104271.00
2023-02-05T10:17:12.085Z,104243.00
2023-02-05T10:20:14.327Z,104237.00
2023-02-05T10:23:05.215Z,104257.00
2023-02-05T10:25:45.271Z,104257.00
2023-02-05T10:28:25.484Z,104254.00
2023-02-05T10:31:06.620Z,104266.00
2023-02-05T10:33:57.241Z,104260.00
2023-02-05T10:36:26.774Z,104281.00
2023-02-05T10:38:56.536Z,104286.00
2023-02-05T10:41:23.187Z,104287.00
2023-02-05T10:43:56.013Z,104291.00
2023-02-05T10:46:29.294Z,104301.00
2023-02-05T10:49:40.862Z,104299.00
2023-02-05T10:52:12.209Z,104299.00
2023-02-05T10:54:40.780Z,104305.00
2023-02-05T10:57:21.890Z,104318.00
2023-02-05T10:59:54.488Z,104318.00
2023-02-05T11:02:22.508Z,104301.00
2023-02-05T11:04:59.873Z,104295.00
2023-02-05T11:07:34.410Z,104290.00
2023-02-05T11:10:34.700Z,104286.00
2023-02-05T11:13:18.820Z,104282.00
2023-02-05T11:16:05.538Z,104283.00
2023-02-05T11:18:45.389Z,104276.00
2023-02-05T11:21:12.798Z,104277.00
2023-02-05T11:23:43.090Z,104278.00
2023-02-05T11:26:18.131Z,104275.00
2023-02-05T11:28:45.178Z,104283.00
2023-02-05T11:31:34.832Z,104275.00
2023-02-05T11:34:07.642Z,104264.00
2023-02-05T11:36:36.642Z,104257.00
2023-02-05T11:39:05.225Z,104245.00
2023-02-05T11:41:52.032Z,104242.00
2023-02-05T11:44:26.043Z,104239.00
2023-02-05T11:46:57.060Z,104243.00
2023-02-05T11:49:33.493Z,104265.00
2023-02-05T11:52:01.763Z,104264.00
2023-02-05T11:54:34.300Z,104259.00
2023-02-05T11:57:07.691Z,104269.00
2023-02-05T11:59:36.111Z,104274.00
2023-02-05T12:02:30.544Z,104280.00
2023-02-05T12:05:31.266Z,104285.00
2023-02-05T12:08:33.951Z,104285.00
2023-02-05T12:11:21.720Z,104282.00
2023-02-05T12:14:20.862Z,104283.00
2023-02-05T12:16:51.685Z,104292.00
2023-02-05T12:19:38.259Z,104297.00
2023-02-05T12:22:14.138Z,104288.00
2023-02-05T12:25:13.813Z,104291.00
2023-02-05T12:27:57.717Z,104295.00
2023-02-05T12:31:01.346Z,104288.00
2023-02-05T12:33:31.411Z,104287.00
2023-02-05T12:36:34.725Z,104289.00
2023-02-05T12:39:04.398Z,104286.00
2023-02-05T12:41:43.362Z,104272.00
2023-02-05T12:44:49.940Z,104288.00
2023-02-05T12:47:36.095Z,104282.00
2023-02-05T12:50:14.662Z,104275.00
2023-02-05T12:52:59.922Z,104268.00
2023-02-05T12:55:48.271Z,104279.00
2023-02-05T12:58:17.367Z,104275.00
2023-02-05T13:00:47.587Z,104285.00
2023-02-05T13:03:38.816Z,104288.00
2023-02-05T13:06:16.697Z,104289.00
2023-02-05T13:08:56.017Z,104284.00
2023-02-05T13:11:39.265Z,104284.00
2023-02-05T13:14:11.975Z,104287.00
2023-02-05T13:16:49.722Z,104270.00
2023-02-05T13:19:32.046Z,104266.00
2023-02-05T13:22:22.561Z,104268.00
2023-02-05T13:25:16.048Z,104285.00
2023-02-05T13:28:05.854Z,104291.00
2023-02-05T13:30:40.131Z,104285.00
2023-02-05T13:33:08.298Z,104286.00
2023-02-05T13:35:42.952Z,104284.00
2023-02-05T13:38:41.919Z,104269.00
2023-02-05T13:41:14.677Z,104274.00
2023-02-05T13:43:51.105Z,104270.00
2023-02-05T13:46:52.562Z,104265.00
2023-02-05T13:49:38.620Z,104265.00
2023-02-05T13:52:49.536Z,104261.00
2023-02-05T13:55:27.958Z,104263.00
2023-02-05T13:58:09.516Z,104258.00
2023-02-05T14:00:38.073Z,104238.00
2023-02-05T14:03:08.561Z,104244.00
2023-02-05T14:05:41.224Z,104249.00
2023-02-05T14:08:31.005Z,104246.00
2023-02-05T14:11:06.982Z,104239.00
2023-02-05T14:13:35.840Z,104248.00
2023-02-05T14:16:24.308Z,104247.00
2023-02-05T14:19:22.349Z,104261.00
2023-02-05T14:21:57.932Z,104255.00
2023-02-05T14:24:29.065Z,104251.00
2023-02-05T14:26:59.664Z,104242.00
2023-02-05T14:29:42.130Z,104249.00
2023-02-05T14:32:27.262Z,104247.00
2023-02-05T14:35:05.667Z,104234.00
2023-02-05T14:37:48.377Z,104247.00
2023-02-05T14:40:22.376Z,104247.00
2023-02-05T14:42:53.410Z,104263.00
2023-02-05T14:45:23.475Z,104258.00
2023-02-05T14:47:51.535Z,104264.00
2023-02-05T14:50:23.765Z,104248.00
2023-02-05T14:52:58.647Z,104253.00
2023-02-05T14:55:45.083Z,104250.00
2023-02-05T14:58:38.487Z,104259.00
2023-02-05T15:01:33.084Z,104272.00
2023-02-05T15:04:01.876Z,104276.00
2023-02-05T15:06:31.272Z,104277.00
2023-02-05T15:09:15.055Z,104265.00
2023-02-05T15:11:51.322Z,104271.00
2023-02-05T15:14:21.046Z,104267.00
2023-02-05T15:16:48.724Z,104264.00
2023-02-05T15:19:18.555Z,104275.00
2023-02-05T15:21:52.132Z,104274.00
2023-02-05T15:24:22.734Z,104264.00
2023-02-05T15:26:54.807Z,104270.00
2023-02-05T15:29:28.971Z,104266.00
2023-02-05T15:32:07.386Z,104268.00
2023-02-05T15:34:48.008Z,104265.00
2023-02-05T15:37:19.986Z,104272.00
2023-02-05T15:39:57.110Z,104269.00
2023-02-05T15:42:45.013Z,104273.00
2023-02-05T15:45:37.533Z,104266.00
2023-02-05T15:48:09.849Z,104272.00
2023-02-05T15:50:42.624Z,104271.00
2023-02-05T15:53:19.484Z,104269.00
2023-02-05T15:55:51.360Z,104264.00
2023-02-05T15:58:21.937Z,104277.00
2023-02-05T16:00:49.964Z,104286.00
2023-02-05T16:03:32.523Z,104281.00
2023-02-05T16:06:00.048Z,104293.00
2023-02-05T16:08:29.762Z,104296.00
2023-02-05T16:11:01.803Z,104293.00
2023-02-05T16:13:29.093Z,104296.00
2023-02-05T16:16:15.338Z,104302.00
2023-02-05T16:18:53.314Z,104297.00
2023-02-05T16:21:30.840Z,104298.00
2023-02-05T16:24:00.579Z,104308.00
2023-02-05T16:26:31.525Z,104312.00
2023-02-05T16:29:24.863Z,104317.00
2023-02-05T16:32:04.540Z,104321.00
2023-02-05T16:34:33.720Z,104339.00
2023-02-05T16:37:04.436Z,104335.00
2023-02-05T16:39:46.347Z,104328.00
2023-02-05T16:42:33.255Z,104330.00
2023-02-05T16:45:09.157Z,104340.00
2023-02-05T16:47:36.872Z,104340.00
2023-02-05T16:50:37.177Z,104345.00
2023-02-05T16:53:13.682Z,104344.00
2023-02-05T16:55:43.221Z,104351.00
2023-02-05T16:58:19.221Z,104350.00
2023-02-05T17:00:54.675Z,104355.00
2023-02-05T17:03:21.758Z,104354.00
2023-02-05T17:06:01.605Z,104347.00
2023-02-05T17:08:37.351Z,104338.00
2023-02-05T17:11:28.524Z,104334.00
2023-02-05T17:14:13.088Z,104328.00
2023-02-05T17:16:41.717Z,104318.00
2023-02-05T17:19:29.442Z,104325.00
2023-02-05T17:22:13.886Z,104336.00
2023-02-05T17:24:45.133Z,104342.00
2023-02-05T17:27:19.502Z,104337.00
2023-02-05T17:29:46.452Z,104339.00
2023-02-05T17:32:17.710Z,104338.00
2023-02-05T17:34:45.302Z,104325.00
2023-02-05T17:37:12.414Z,104328.00
2023-02-05T17:39:39.777Z,104332.00
2023-02-05T17:42:10.411Z,104353.00
2023-02-05T17:44:37.169Z,104357.00
2023-02-05T17:47:05.009Z,104357.00
2023-02-05T17:49:31.618Z,104358.00
2023-02-05T17:51:58.288Z,104359.00
2023-02-05T17:54:25.898Z,104349.00
2023-02-05T17:56:55.336Z,104349.00
2023-02-05T17:59:23.832Z,104367.00
2023-02-05T18:01:51.164Z,104359.00
2023-02-05T18:04:18.803Z,104348.00
2023-02-05T18:06:47.349Z,104351.00
2023-02-05T18:09:14.202Z,104361.00
2023-02-05T18:11:40.876Z,104349.00
2023-02-05T18:14:08.498Z,104352.00
2023-02-05T18:16:35.389Z,104350.00
2023-02-05T18:19:01.999Z,104348.00
2023-02-05T18:21:28.700Z,104345.00
2023-02-05T18:23:55.334Z,104353.00
2023-02-05T18:26:22.060Z,104340.00
2023-02-05T18:28:48.828Z,104349.00
2023-02-05T18:31:15.921Z,104356.00
2023-02-05T18:33:43.012Z,104359.00
2023-02-05T18:36:13.173Z,104352.00
2023-02-05T18:38:42.975Z,104360.00
2023-02-05T18:41:16.236Z,104355.00
2023-02-05T18:43:43.466Z,104352.00
2023-02-05T18:46:15.641Z,104357.00
2023-02-05T18:48:43.884Z,104365.00
2023-02-05T18:51:14.499Z,104367.00
2023-02-05T18:53:43.087Z,104359.00
2023-02-05T18:56:16.245Z,104366.00
2023-02-05T18:58:44.518Z,104352.00
2023-02-05T19:01:16.217Z,104356.00
2023-02-05T19:03:44.153Z,104363.00
2023-02-05T19:06:12.816Z,104370.00
2023-02-05T19:08:39.965Z,104379.00
2023-02-05T19:11:14.657Z,104397.00
2023-02-05T19:13:41.842Z,104391.00
2023-02-05T19:16:14.041Z,104383.00
2023-02-05T19:18:41.961Z,104387.00
2023-02-05T19:21:12.056Z,104389.00
2023-02-05T19:23:39.848Z,104390.00
2023-02-05T19:26:10.238Z,104405.00
2023-02-05T19:28:38.337Z,104403.00
2023-02-05T19:31:07.408Z,104393.00
2023-02-05T19:33:35.257Z,104384.00
2023-02-05T19:36:03.045Z,104384.00
2023-02-05T19:38:30.512Z,104380.00
2023-02-05T19:40:57.298Z,104378.00
2023-02-05T19:43:23.990Z,104379.00
2023-02-05T19:45:50.610Z,104376.00
2023-02-05T19:48:17.180Z,104364.00
2023-02-05T19:50:43.761Z,104366.00
2023-02-05T19:53:10.461Z,104381.00
2023-02-05T19:55:37.175Z,104381.00
2023-02-05T19:58:04.018Z,104380.00
2023-02-05T20:00:30.655Z,104391.00
2023-02-05T20:02:57.442Z,104386.00
2023-02-05T20:05:24.626Z,104381.00
2023-02-05T20:07:52.602Z,104394.00
2023-02-05T20:10:19.958Z,104403.00
2023-02-05T20:12:49.700Z,104400.00
2023-02-05T20:15:16.569Z,104387.00
2023-02-05T20:17:43.795Z,104388.00
2023-02-05T20:20:22.171Z,104386.00
2023-02-05T20:22:54.136Z,104390.00
2023-02-05T20:25:21.465Z,104401.00
2023-02-05T20:27:48.108Z,104384.00
2023-02-05T20:30:33.424Z,104387.00
2023-02-05T20:33:00.226Z,104399.00
2023-02-05T20:35:26.819Z,104407.00
2023-02-05T20:37:53.426Z,104403.00
2023-02-05T20:40:20.236Z,104400.00
2023-02-05T20:42:46.971Z,104394.00
2023-02-05T20:45:13.624Z,104389.00
2023-02-05T20:47:40.447Z,104385.00
2023-02-05T20:50:08.204Z,104376.00
2023-02-05T20:52:34.921Z,104385.00
2023-02-05T20:55:01.630Z,104388.00
2023-02-05T20:57:28.274Z,104382.00
2023-02-05T20:59:55.587Z,104380.00
2023-02-05T21:02:23.725Z,104390.00
2023-02-05T21:04:52.457Z,104380.00
2023-02-05T21:07:19.356Z,104386.00
2023-02-05T21:09:45.956Z,104389.00
2023-02-05T21:12:12.729Z,104386.00
2023-02-05T21:14:39.330Z,104393.00
2023-02-05T21:17:09.264Z,104397.00
2023-02-05T21:19:36.029Z,104384.00
2023-02-05T21:22:02.740Z,104381.00
2023-02-05T21:24:29.367Z,104390.00
2023-02-05T21:26:56.223Z,104394.00
2023-02-05T21:29:22.822Z,104406.00
2023-02-05T21:31:53.222Z,104406.00
2023-02-05T21:34:22.401Z,104411.00
2023-02-05T21:36:52.836Z,104396.00
2023-02-05T21:39:22.145Z,104404.00
2023-02-05T21:41:50.849Z,104412.00
2023-02-05T21:44:17.669Z,104414.00
2023-02-05T21:46:44.311Z,104418.00
2023-02-05T21:49:11.685Z,104406.00
2023-02-05T21:51:38.380Z,104405.00
2023-02-05T21:54:06.636Z,104401.00
2023-02-05T21:56:39.565Z,104394.00
2023-02-05T21:59:06.768Z,104397.00
2023-02-05T22:01:36.198Z,104402.00
2023-02-05T22:04:07.578Z,104404.00
2023-02-05T22:06:35.519Z,104406.00
2023-02-05T22:09:04.351Z,104396.00
2023-02-05T22:11:31.591Z,104381.00
2023-02-05T22:13:58.771Z,104384.00
2023-02-05T22:16:33.633Z,104382.00
2023-02-05T22:19:01.788Z,104386.00
2023-02-05T22:21:42.565Z,104395.00
2023-02-05T22:24:14.343Z,104381.00
2023-02-05T22:26:41.923Z,104379.00
2023-02-05T22:29:12.015Z,104381.00
2023-02-05T22:31:38.828Z,104382.00
2023-02-05T22:34:05.671Z,104382.00
2023-02-05T22:36:34.173Z,104373.00
2023-02-05T22:39:02.089Z,104366.00
2023-02-05T22:41:34.449Z,104368.00
2023-02-05T22:44:01.788Z,104382.00
2023-02-05T22:46:31.240Z,104385.00
2023-02-05T22:48:59.760Z,104385.00
2023-02-05T22:51:37.573Z,104390.00
2023-02-05T22:54:04.844Z,104391.00
2023-02-05T22:56:31.578Z,104385.00
2023-02-05T22:58:59.730Z,104387.00
2023-02-05T23:01:30.588Z,104399.00
2023-02-05T23:03:57.844Z,104412.00
2023-02-05T23:06:27.067Z,104401.00
2023-02-05T23:08:59.367Z,104402.00
2023-02-05T23:11:27.616Z,104407.00
2023-02-05T23:13:54.569Z,104406.00
2023-02-05T23:16:26.834Z,104404.00
2023-02-05T23:18:56.912Z,104396.00
2023-02-05T23:21:26.688Z,104396.00
2023-02-05T23:23:53.456Z,104387.00
2023-02-05T23:26:23.464Z,104392.00
2023-02-05T23:28:51.992Z,104392.00
2023-02-05T23:31:19.809Z,104401.00
2023-02-05T23:33:46.550Z,104412.00
2023-02-05T23:36:13.522Z,104403.00
2023-02-05T23:38:40.242Z,104411.00
2023-02-05T23:41:07.346Z,104416.00
2023-02-05T23:43:35.638Z,104422.00
2023-02-05T23:46:03.301Z,104422.00
2023-02-05T23:48:29.937Z,104427.00
2023-02-05T23:50:57.071Z,104420.00
2023-02-05T23:53:23.968Z,104416.00
2023-02-05T23:55:52.025Z,104408.00
2023-02-05T23:58:22.275Z,104429.00
